createdAt,value
2023-04-10T00:01:58.671Z,13.578798
2023-04-10T00:07:00.094Z,13.20907
2023-04-10T00:12:01.571Z,13.387712
2023-04-10T00:17:03.018Z,14.018818
2023-04-10T00:22:04.710Z,13.791094
2023-04-10T00:27:06.331Z,13.426196
2023-04-10T00:32:07.889Z,13.225394
2023-04-10T00:37:09.421Z,13.021498
2023-04-10T00:42:10.821Z,12.735792
2023-04-10T00:47:12.268Z,12.966434
2023-04-10T00:52:13.672Z,13.83179
2023-04-10T00:57:15.274Z,13.314274
2023-04-10T01:02:17.187Z,14.08634
2023-04-10T01:07:18.502Z,13.852604
2023-04-10T01:12:19.862Z,14.373648
2023-04-10T01:17:21.742Z,14.487524
2023-04-10T01:22:23.181Z,13.936736
2023-04-10T01:27:24.724Z,14.5321
2023-04-10T01:32:26.846Z,14.16005
2023-04-10T01:37:28.460Z,14.34541
2023-04-10T01:42:30.204Z,14.0603
2023-04-10T01:47:32.010Z,14.537392
2023-04-10T01:52:34.087Z,14.107522
2023-04-10T01:57:35.773Z,13.595136
2023-04-10T02:02:37.844Z,13.859498
2023-04-10T02:07:39.273Z,14.331284
2023-04-10T02:12:41.057Z,14.302326
2023-04-10T02:17:42.852Z,14.270818
2023-04-10T02:22:44.626Z,14.699806
2023-04-10T02:27:46.410Z,13.799208
2023-04-10T02:32:48.178Z,14.02799
2023-04-10T02:37:49.887Z,14.635364
2023-04-10T02:42:51.707Z,14.367922
2023-04-10T02:47:53.544Z,14.0197
2023-04-10T02:52:55.317Z,14.156346
2023-04-10T02:57:56.964Z,14.288134
2023-04-10T03:02:59.000Z,14.489818
2023-04-10T03:08:00.520Z,13.896666
2023-04-10T03:13:01.864Z,13.881834
2023-04-10T03:18:03.440Z,13.653662
2023-04-10T03:23:05.004Z,13.475902
2023-04-10T03:28:06.988Z,13.723492
2023-04-10T03:33:08.525Z,12.782404
2023-04-10T03:38:10.109Z,12.693252
2023-04-10T03:43:11.512Z,12.901558
2023-04-10T03:48:12.816Z,13.007916
2023-04-10T03:53:14.174Z,12.755578
2023-04-10T03:58:15.613Z,12.441524
2023-04-10T04:03:17.049Z,12.26846
2023-04-10T04:08:18.512Z,12.417182
2023-04-10T04:13:19.786Z,12.443398
2023-04-10T04:18:21.251Z,12.244794
2023-04-10T04:23:22.584Z,12.810752
2023-04-10T04:28:23.903Z,13.07191
2023-04-10T04:33:25.603Z,13.34482
2023-04-10T04:38:27.142Z,12.548044
2023-04-10T04:43:28.744Z,12.619542
2023-04-10T04:48:30.508Z,13.168118
2023-04-10T04:53:32.069Z,13.25472
2023-04-10T04:58:33.766Z,12.339304
2023-04-10T05:03:35.743Z,12.596978
2023-04-10T05:08:37.331Z,12.505614
2023-04-10T05:13:39.089Z,12.608892
2023-04-10T05:18:41.204Z,12.407098
2023-04-10T05:23:42.912Z,12.787248
2023-04-10T05:28:44.569Z,12.87773
2023-04-10T05:33:46.511Z,13.385868
2023-04-10T05:38:48.249Z,13.05857
2023-04-10T05:43:50.040Z,13.735582
2023-04-10T05:48:51.986Z,13.798856
2023-04-10T05:53:53.604Z,14.01529
2023-04-10T05:58:55.598Z,13.77838
2023-04-10T06:03:57.546Z,13.935936
2023-04-10T06:08:59.043Z,14.401114
2023-04-10T06:14:00.672Z,14.75365
2023-04-10T06:19:02.815Z,14.555928
2023-04-10T06:24:04.718Z,14.284062
2023-04-10T06:29:06.671Z,14.875464
2023-04-10T06:34:08.644Z,14.148136
2023-04-10T06:39:09.930Z,14.712602
2023-04-10T06:44:11.501Z,15.224296
2023-04-10T06:49:12.889Z,15.730346
2023-04-10T06:54:14.192Z,14.950924
2023-04-10T06:59:15.783Z,16.049338
2023-04-10T07:04:17.585Z,15.55565
2023-04-10T07:09:19.148Z,16.540122
2023-04-10T07:14:20.629Z,16.90821
2023-04-10T07:19:22.381Z,17.11653
2023-04-10T07:24:23.804Z,17.241614
2023-04-10T07:29:25.435Z,17.972416
2023-04-10T07:34:27.259Z,18.543532
2023-04-10T07:39:28.948Z,18.163774
2023-04-10T07:44:30.630Z,18.308548
2023-04-10T07:49:32.447Z,18.541144
2023-04-10T07:54:34.039Z,18.147626
2023-04-10T07:59:35.655Z,18.628708
2023-04-10T08:04:37.631Z,18.475372
2023-04-10T08:09:39.359Z,18.250022
2023-04-10T08:14:40.941Z,19.320132
2023-04-10T08:19:43.496Z,18.264148
2023-04-10T08:24:44.889Z,18.400088
2023-04-10T08:29:46.366Z,18.988234
2023-04-10T08:34:48.174Z,19.013134
2023-04-10T08:39:49.591Z,19.029458
2023-04-10T08:44:51.273Z,18.525946
2023-04-10T08:49:53.005Z,17.612348
2023-04-10T08:54:54.543Z,17.37313
2023-04-10T08:59:56.183Z,17.1604
2023-04-10T09:04:57.894Z,17.374718
2023-04-10T09:09:59.842Z,18.613076
2023-04-10T09:15:01.722Z,18.140122
2023-04-10T09:20:03.478Z,19.159224
2023-04-10T09:25:05.318Z,18.607078
2023-04-10T09:30:06.988Z,17.42194
2023-04-10T09:35:08.884Z,17.597964
2023-04-10T09:40:10.535Z,18.048148
2023-04-10T09:45:12.021Z,17.616676
2023-04-10T09:50:13.376Z,17.148744
2023-04-10T09:55:14.928Z,16.541004
2023-04-10T10:00:16.479Z,16.794524
2023-04-10T10:05:17.902Z,16.73935
2023-04-10T10:10:19.184Z,17.624262
2023-04-10T10:15:20.720Z,17.764788
2023-04-10T10:20:22.072Z,16.614538
2023-04-10T10:25:23.429Z,17.019874
2023-04-10T10:30:30.214Z,18.64088
2023-04-10T10:35:32.308Z,19.06326
2023-04-10T10:40:33.842Z,19.520704
2023-04-10T10:45:35.261Z,18.77127
2023-04-10T10:50:36.707Z,19.907518
2023-04-10T10:55:37.985Z,20.040812
2023-04-10T11:00:39.354Z,21.431178
2023-04-10T11:05:40.781Z,20.458714
2023-04-10T11:10:42.201Z,19.89023
2023-04-10T11:15:45.140Z,18.55721
2023-04-10T11:20:46.435Z,18.587484
2023-04-10T11:25:47.804Z,18.249656
2023-04-10T11:30:49.385Z,17.819514
2023-04-10T11:35:50.821Z,18.0883
2023-04-10T11:40:52.254Z,17.466082
2023-04-10T11:45:53.680Z,17.20153
2023-04-10T11:50:55.062Z,17.240284
2023-04-10T11:55:56.365Z,18.133324
2023-04-10T12:00:57.689Z,17.167728
2023-04-10T12:05:59.049Z,16.415662
2023-04-10T12:11:00.361Z,16.811024
2023-04-10T12:16:01.695Z,16.756474
2023-04-10T12:21:03.445Z,16.274606
2023-04-10T12:26:04.831Z,16.477892
2023-04-10T12:31:06.162Z,16.8835
2023-04-10T12:36:07.457Z,17.749712
2023-04-10T12:41:08.859Z,16.747642
2023-04-10T12:46:12.156Z,16.309738
2023-04-10T12:51:13.613Z,17.003454
2023-04-10T12:56:14.948Z,16.884382
2023-04-10T13:01:20.715Z,16.648258
2023-04-10T13:06:22.522Z,16.984918
2023-04-10T13:11:24.124Z,16.819058
2023-04-10T13:16:26.061Z,17.087138
2023-04-10T13:21:27.809Z,17.471374
2023-04-10T13:26:29.749Z,17.481618
2023-04-10T13:31:31.105Z,17.395384
2023-04-10T13:36:32.612Z,17.77715
2023-04-10T13:41:34.122Z,17.177796
2023-04-10T13:46:35.450Z,17.481008
2023-04-10T13:51:37.149Z,16.389974
2023-04-10T13:56:38.530Z,17.02005
2023-04-10T14:01:39.836Z,17.216632
2023-04-10T14:06:41.253Z,17.816868
2023-04-10T14:11:42.740Z,17.255834
2023-04-10T14:16:44.246Z,17.463082
2023-04-10T14:21:46.037Z,17.501932
2023-04-10T14:26:47.684Z,17.544038
2023-04-10T14:31:57.513Z,17.009112
2023-04-10T14:37:00.110Z,17.157496
2023-04-10T14:42:01.970Z,16.784984
2023-04-10T14:47:03.868Z,16.876796
2023-04-10T14:52:05.669Z,16.753218
2023-04-10T14:57:07.327Z,16.292084
2023-04-10T15:02:09.043Z,16.15518
2023-04-10T15:07:11.018Z,16.174598
2023-04-10T15:12:12.252Z,16.423084
2023-04-10T15:17:13.798Z,16.338166
2023-04-10T15:22:15.207Z,16.529538
2023-04-10T15:27:16.529Z,16.636778
2023-04-10T15:32:17.935Z,16.165154
2023-04-10T15:37:19.295Z,16.525114
2023-04-10T15:42:20.641Z,16.831772
2023-04-10T15:47:22.363Z,15.994354
2023-04-10T15:52:24.154Z,16.336226
2023-04-10T15:57:25.595Z,16.241062
2023-04-10T16:02:27.310Z,16.43588
2023-04-10T16:07:29.174Z,15.813662
2023-04-10T16:12:30.695Z,15.862214
2023-04-10T16:17:32.237Z,15.689202
2023-04-10T16:22:34.078Z,15.791598
2023-04-10T16:27:35.602Z,15.805452
2023-04-10T16:32:37.522Z,15.660868
2023-04-10T16:37:39.137Z,16.684882
2023-04-10T16:42:40.718Z,16.26295
2023-04-10T16:47:42.461Z,15.94165
2023-04-10T16:52:44.596Z,15.542244
2023-04-10T16:57:46.155Z,14.931858
2023-04-10T17:02:47.761Z,15.64578
2023-04-10T17:07:49.601Z,15.435438
2023-04-10T17:12:51.180Z,15.420864
2023-04-10T17:17:53.195Z,14.963462
2023-04-10T17:22:54.996Z,15.239304
2023-04-10T17:27:56.903Z,14.186972
2023-04-10T17:32:59.005Z,15.006274
2023-04-10T17:38:01.032Z,15.14927
2023-04-10T17:43:02.852Z,14.8737
2023-04-10T17:48:04.689Z,14.981116
2023-04-10T17:53:06.268Z,14.37586
2023-04-10T17:58:07.978Z,15.179978
2023-04-10T18:03:09.967Z,14.69971
2023-04-10T18:08:11.991Z,14.902114
2023-04-10T18:13:13.214Z,14.449122
2023-04-10T18:18:14.601Z,14.527066
2023-04-10T18:23:16.129Z,13.909366
2023-04-10T18:28:19.271Z,14.90723
2023-04-10T18:33:21.985Z,13.951296
2023-04-10T18:38:23.448Z,14.103994
2023-04-10T18:43:24.788Z,13.880232
2023-04-10T18:48:26.358Z,14.386186
2023-04-10T18:53:27.915Z,14.471186
2023-04-10T18:58:29.814Z,14.187854
2023-04-10T19:03:31.570Z,14.006904
2023-04-10T19:08:33.215Z,14.032238
2023-04-10T19:13:34.852Z,14.462366
2023-04-10T19:18:36.491Z,13.103756
2023-04-10T19:23:38.170Z,13.260254
2023-04-10T19:28:39.760Z,12.55457
2023-04-10T19:33:41.567Z,13.085044
2023-04-10T19:38:43.227Z,13.788096
2023-04-10T19:43:44.886Z,13.563018
2023-04-10T19:48:46.577Z,14.295638
2023-04-10T19:53:49.184Z,14.10162
2023-04-10T19:58:51.197Z,13.324858
2023-04-10T20:03:52.783Z,13.315862
2023-04-10T20:08:54.928Z,12.987682
2023-04-10T20:13:56.570Z,13.373682
2023-04-10T20:18:58.070Z,12.928722
2023-04-10T20:23:59.836Z,13.029884
2023-04-10T20:29:01.670Z,12.53355
2023-04-10T20:34:03.550Z,13.134926
2023-04-10T20:39:05.771Z,12.235754
2023-04-10T20:44:07.557Z,12.670306
2023-04-10T20:49:09.297Z,12.96087
2023-04-10T20:54:11.036Z,12.217828
2023-04-10T20:59:12.850Z,12.658106
2023-04-10T21:04:14.248Z,11.57128
2023-04-10T21:09:15.716Z,12.083504
2023-04-10T21:14:17.168Z,11.903002
2023-04-10T21:19:18.596Z,12.519968
2023-04-10T21:24:20.029Z,12.728288
2023-04-10T21:29:21.676Z,11.457256
2023-04-10T21:34:23.183Z,11.570508
2023-04-10T21:39:24.545Z,12.258538
2023-04-10T21:44:25.810Z,11.841926
2023-04-10T21:49:27.154Z,12.295176
2023-04-10T21:54:28.883Z,11.561688
2023-04-10T21:59:30.128Z,11.319676
2023-04-10T22:04:31.880Z,11.971502
2023-04-10T22:09:34.779Z,11.35619
2023-04-10T22:14:36.028Z,11.49654
2023-04-10T22:19:37.385Z,11.855604
2023-04-10T22:24:38.680Z,10.402048
2023-04-10T22:29:42.033Z,10.171068
2023-04-10T22:34:46.864Z,10.558546
2023-04-10T22:39:48.220Z,10.770666
2023-04-10T22:44:49.479Z,10.619284
2023-04-10T22:49:51.079Z,10.398902
2023-04-10T22:54:52.551Z,10.495558
2023-04-10T22:59:53.931Z,10.368018
2023-04-10T23:04:55.314Z,10.708274
2023-04-10T23:09:56.617Z,9.902868
2023-04-10T23:14:58.074Z,10.136318
2023-04-10T23:19:59.327Z,10.160432
2023-04-10T23:25:00.939Z,9.706748
2023-04-10T23:30:02.368Z,9.813106
2023-04-10T23:35:04.012Z,9.210876
2023-04-10T23:40:05.588Z,9.391216
2023-04-10T23:45:06.913Z,9.24012
2023-04-10T23:50:08.405Z,9.63863
2023-04-10T23:55:09.821Z,9.975358
